sensor_id;sensor_type;location;lat;lon;timestamp;P1;durP1;ratioP1;P2;durP2;ratioP2
5465;SDS011;2755;50.728;7.108;2023-12-20T00:00:57;127.10;;;48.67;;
5465;SDS011;2755;50.728;7.108;2023-12-20T00:03:22;125.37;;;47.97;;
5465;SDS011;2755;50.728;7.108;2023-12-20T00:05:49;124.97;;;45.90;;
5465;SDS011;2755;50.728;7.108;2023-12-20T00:08:15;126.67;;;51.83;;
5465;SDS011;2755;50.728;7.108;2023-12-20T00:10:41;127.47;;;51.40;;
5465;SDS011;2755;50.728;7.108;2023-12-20T00:13:06;127.07;;;49.33;;
5465;SDS011;2755;50.728;7.108;2023-12-20T00:15:33;129.47;;;52.80;;
5465;SDS011;2755;50.728;7.108;2023-12-20T00:17:59;127.30;;;50.40;;
5465;SDS011;2755;50.728;7.108;2023-12-20T00:20:24;127.40;;;49.77;;
5465;SDS011;2755;50.728;7.108;2023-12-20T00:22:50;124.37;;;48.37;;
5465;SDS011;2755;50.728;7.108;2023-12-20T00:25:15;125.87;;;49.23;;
5465;SDS011;2755;50.728;7.108;2023-12-20T00:27:41;127.97;;;49.90;;
5465;SDS011;2755;50.728;7.108;2023-12-20T00:30:07;125.77;;;48.10;;
5465;SDS011;2755;50.728;7.108;2023-12-20T00:32:34;128.43;;;52.50;;
5465;SDS011;2755;50.728;7.108;2023-12-20T00:35:00;125.90;;;49.80;;
5465;SDS011;2755;50.728;7.108;2023-12-20T00:37:26;125.60;;;46.53;;
5465;SDS011;2755;50.728;7.108;2023-12-20T00:39:52;125.67;;;49.30;;
5465;SDS011;2755;50.728;7.108;2023-12-20T00:42:18;126.77;;;49.67;;
5465;SDS011;2755;50.728;7.108;2023-12-20T00:44:44;125.87;;;47.40;;
5465;SDS011;2755;50.728;7.108;2023-12-20T00:47:09;129.40;;;52.77;;
5465;SDS011;2755;50.728;7.108;2023-12-20T00:49:35;128.23;;;51.90;;
5465;SDS011;2755;50.728;7.108;2023-12-20T00:52:01;129.17;;;52.37;;
5465;SDS011;2755;50.728;7.108;2023-12-20T00:54:26;128.77;;;51.60;;
5465;SDS011;2755;50.728;7.108;2023-12-20T00:56:52;127.00;;;51.10;;
5465;SDS011;2755;50.728;7.108;2023-12-20T00:59:18;126.73;;;49.93;;
5465;SDS011;2755;50.728;7.108;2023-12-20T01:01:44;129.00;;;51.73;;
5465;SDS011;2755;50.728;7.108;2023-12-20T01:04:10;127.77;;;50.30;;
5465;SDS011;2755;50.728;7.108;2023-12-20T01:06:36;129.37;;;52.47;;
5465;SDS011;2755;50.728;7.108;2023-12-20T01:09:01;128.53;;;52.77;;
5465;SDS011;2755;50.728;7.108;2023-12-20T01:11:27;129.20;;;52.70;;
5465;SDS011;2755;50.728;7.108;2023-12-20T01:13:53;129.40;;;53.90;;
5465;SDS011;2755;50.728;7.108;2023-12-20T01:16:19;126.20;;;50.43;;
5465;SDS011;2755;50.728;7.108;2023-12-20T01:18:44;129.77;;;54.87;;
5465;SDS011;2755;50.728;7.108;2023-12-20T01:21:10;128.50;;;53.00;;
5465;SDS011;2755;50.728;7.108;2023-12-20T01:23:35;128.27;;;53.20;;
5465;SDS011;2755;50.728;7.108;2023-12-20T01:26:01;129.73;;;53.77;;
5465;SDS011;2755;50.728;7.108;2023-12-20T01:28:27;131.57;;;56.90;;
5465;SDS011;2755;50.728;7.108;2023-12-20T01:30:53;130.43;;;54.40;;
5465;SDS011;2755;50.728;7.108;2023-12-20T01:33:18;130.27;;;58.47;;
5465;SDS011;2755;50.728;7.108;2023-12-20T01:35:44;130.03;;;55.47;;
5465;SDS011;2755;50.728;7.108;2023-12-20T01:38:10;132.00;;;55.37;;
5465;SDS011;2755;50.728;7.108;2023-12-20T01:40:35;131.87;;;57.57;;
5465;SDS011;2755;50.728;7.108;2023-12-20T01:43:01;128.33;;;52.87;;
5465;SDS011;2755;50.728;7.108;2023-12-20T01:45:34;128.10;;;51.77;;
5465;SDS011;2755;50.728;7.108;2023-12-20T01:47:59;130.50;;;56.87;;
5465;SDS011;2755;50.728;7.108;2023-12-20T01:50:27;132.17;;;58.37;;
5465;SDS011;2755;50.728;7.108;2023-12-20T01:52:54;129.97;;;52.50;;
5465;SDS011;2755;50.728;7.108;2023-12-20T01:55:25;132.07;;;57.87;;
5465;SDS011;2755;50.728;7.108;2023-12-20T01:57:52;133.03;;;59.27;;
5465;SDS011;2755;50.728;7.108;2023-12-20T02:00:18;131.00;;;55.63;;
5465;SDS011;2755;50.728;7.108;2023-12-20T02:02:49;132.83;;;58.77;;
5465;SDS011;2755;50.728;7.108;2023-12-20T02:05:17;133.17;;;58.47;;
5465;SDS011;2755;50.728;7.108;2023-12-20T02:07:43;133.47;;;57.87;;
5465;SDS011;2755;50.728;7.108;2023-12-20T02:10:09;132.33;;;56.80;;
5465;SDS011;2755;50.728;7.108;2023-12-20T02:12:34;131.27;;;55.47;;
5465;SDS011;2755;50.728;7.108;2023-12-20T02:15:00;132.37;;;58.00;;
5465;SDS011;2755;50.728;7.108;2023-12-20T02:17:26;132.87;;;58.57;;
5465;SDS011;2755;50.728;7.108;2023-12-20T02:19:52;133.77;;;58.47;;
5465;SDS011;2755;50.728;7.108;2023-12-20T02:22:18;133.47;;;59.47;;
5465;SDS011;2755;50.728;7.108;2023-12-20T02:24:44;134.10;;;58.13;;
5465;SDS011;2755;50.728;7.108;2023-12-20T02:27:09;134.70;;;58.57;;
5465;SDS011;2755;50.728;7.108;2023-12-20T02:29:35;134.80;;;59.47;;
5465;SDS011;2755;50.728;7.108;2023-12-20T02:32:01;130.27;;;54.10;;
5465;SDS011;2755;50.728;7.108;2023-12-20T02:34:27;131.77;;;54.43;;
5465;SDS011;2755;50.728;7.108;2023-12-20T02:36:53;129.10;;;53.17;;
5465;SDS011;2755;50.728;7.108;2023-12-20T02:39:19;128.97;;;50.57;;
5465;SDS011;2755;50.728;7.108;2023-12-20T02:41:46;127.87;;;49.60;;
5465;SDS011;2755;50.728;7.108;2023-12-20T02:44:11;125.70;;;46.33;;
5465;SDS011;2755;50.728;7.108;2023-12-20T02:46:37;126.30;;;46.57;;
5465;SDS011;2755;50.728;7.108;2023-12-20T02:49:02;125.77;;;45.53;;
5465;SDS011;2755;50.728;7.108;2023-12-20T02:51:28;124.33;;;42.97;;
5465;SDS011;2755;50.728;7.108;2023-12-20T02:53:54;121.77;;;43.80;;
5465;SDS011;2755;50.728;7.108;2023-12-20T02:56:19;121.07;;;41.57;;
5465;SDS011;2755;50.728;7.108;2023-12-20T02:58:45;122.37;;;41.37;;
5465;SDS011;2755;50.728;7.108;2023-12-20T03:01:10;121.37;;;39.47;;
5465;SDS011;2755;50.728;7.108;2023-12-20T03:03:36;122.10;;;41.87;;
5465;SDS011;2755;50.728;7.108;2023-12-20T03:06:01;121.67;;;40.40;;
5465;SDS011;2755;50.728;7.108;2023-12-20T03:08:27;126.37;;;44.87;;
5465;SDS011;2755;50.728;7.108;2023-12-20T03:10:52;121.67;;;39.37;;
5465;SDS011;2755;50.728;7.108;2023-12-20T03:13:18;121.97;;;39.67;;
5465;SDS011;2755;50.728;7.108;2023-12-20T03:15:44;123.07;;;42.73;;
5465;SDS011;2755;50.728;7.108;2023-12-20T03:18:10;121.97;;;41.27;;
5465;SDS011;2755;50.728;7.108;2023-12-20T03:20:36;125.10;;;44.47;;
5465;SDS011;2755;50.728;7.108;2023-12-20T03:23:02;122.67;;;43.90;;
5465;SDS011;2755;50.728;7.108;2023-12-20T03:25:28;123.07;;;41.23;;
5465;SDS011;2755;50.728;7.108;2023-12-20T03:27:53;121.67;;;42.50;;
5465;SDS011;2755;50.728;7.108;2023-12-20T03:30:19;119.47;;;40.17;;
5465;SDS011;2755;50.728;7.108;2023-12-20T03:32:45;122.73;;;42.03;;
5465;SDS011;2755;50.728;7.108;2023-12-20T03:35:11;124.30;;;40.07;;
5465;SDS011;2755;50.728;7.108;2023-12-20T03:37:36;121.67;;;40.40;;
5465;SDS011;2755;50.728;7.108;2023-12-20T03:40:02;120.77;;;40.07;;
5465;SDS011;2755;50.728;7.108;2023-12-20T03:42:28;123.07;;;42.47;;
5465;SDS011;2755;50.728;7.108;2023-12-20T03:44:54;125.50;;;44.40;;
5465;SDS011;2755;50.728;7.108;2023-12-20T03:47:19;123.57;;;43.33;;
5465;SDS011;2755;50.728;7.108;2023-12-20T03:49:45;126.17;;;42.53;;
5465;SDS011;2755;50.728;7.108;2023-12-20T03:52:10;126.70;;;43.97;;
5465;SDS011;2755;50.728;7.108;2023-12-20T03:54:36;126.70;;;41.23;;
5465;SDS011;2755;50.728;7.108;2023-12-20T03:57:02;126.40;;;44.67;;
5465;SDS011;2755;50.728;7.108;2023-12-20T03:59:28;123.07;;;42.67;;
5465;SDS011;2755;50.728;7.108;2023-12-20T04:01:54;121.67;;;40.70;;
5465;SDS011;2755;50.728;7.108;2023-12-20T04:04:20;126.07;;;47.47;;
5465;SDS011;2755;50.728;7.108;2023-12-20T04:06:45;126.07;;;43.57;;
5465;SDS011;2755;50.728;7.108;2023-12-20T04:09:11;121.97;;;42.50;;
5465;SDS011;2755;50.728;7.108;2023-12-20T04:11:37;120.80;;;40.93;;
5465;SDS011;2755;50.728;7.108;2023-12-20T04:14:02;123.97;;;45.87;;
5465;SDS011;2755;50.728;7.108;2023-12-20T04:16:29;122.80;;;42.07;;
5465;SDS011;2755;50.728;7.108;2023-12-20T04:18:55;125.20;;;42.57;;
5465;SDS011;2755;50.728;7.108;2023-12-20T04:21:21;121.53;;;41.47;;
5465;SDS011;2755;50.728;7.108;2023-12-20T04:23:46;123.23;;;42.40;;
5465;SDS011;2755;50.728;7.108;2023-12-20T04:26:12;122.00;;;39.23;;
5465;SDS011;2755;50.728;7.108;2023-12-20T04:28:37;124.43;;;41.33;;
5465;SDS011;2755;50.728;7.108;2023-12-20T04:31:03;126.40;;;44.93;;
5465;SDS011;2755;50.728;7.108;2023-12-20T04:33:29;124.73;;;41.87;;
5465;SDS011;2755;50.728;7.108;2023-12-20T04:35:54;122.87;;;43.20;;
5465;SDS011;2755;50.728;7.108;2023-12-20T04:38:20;122.93;;;42.30;;
5465;SDS011;2755;50.728;7.108;2023-12-20T04:40:46;123.13;;;41.37;;
5465;SDS011;2755;50.728;7.108;2023-12-20T04:43:13;120.57;;;40.60;;
5465;SDS011;2755;50.728;7.108;2023-12-20T04:45:38;123.37;;;42.60;;
5465;SDS011;2755;50.728;7.108;2023-12-20T04:48:04;121.67;;;42.37;;
5465;SDS011;2755;50.728;7.108;2023-12-20T04:50:30;123.20;;;39.87;;
5465;SDS011;2755;50.728;7.108;2023-12-20T04:52:56;122.07;;;40.07;;
5465;SDS011;2755;50.728;7.108;2023-12-20T04:55:21;124.20;;;45.60;;
5465;SDS011;2755;50.728;7.108;2023-12-20T04:57:47;124.50;;;43.27;;
5465;SDS011;2755;50.728;7.108;2023-12-20T05:00:13;121.97;;;41.27;;
5465;SDS011;2755;50.728;7.108;2023-12-20T05:02:40;123.07;;;42.10;;
5465;SDS011;2755;50.728;7.108;2023-12-20T05:05:06;125.47;;;45.07;;
5465;SDS011;2755;50.728;7.108;2023-12-20T05:07:32;124.13;;;42.73;;
5465;SDS011;2755;50.728;7.108;2023-12-20T05:09:58;127.80;;;46.50;;
5465;SDS011;2755;50.728;7.108;2023-12-20T05:12:23;122.13;;;42.17;;
5465;SDS011;2755;50.728;7.108;2023-12-20T05:14:49;122.73;;;43.30;;
5465;SDS011;2755;50.728;7.108;2023-12-20T05:17:16;122.00;;;41.00;;
5465;SDS011;2755;50.728;7.108;2023-12-20T05:19:42;125.50;;;43.57;;
5465;SDS011;2755;50.728;7.108;2023-12-20T05:22:07;123.40;;;44.17;;
5465;SDS011;2755;50.728;7.108;2023-12-20T05:24:33;124.70;;;37.30;;
5465;SDS011;2755;50.728;7.108;2023-12-20T05:26:59;122.50;;;41.40;;
5465;SDS011;2755;50.728;7.108;2023-12-20T05:29:25;120.73;;;39.83;;
5465;SDS011;2755;50.728;7.108;2023-12-20T05:31:50;121.47;;;40.17;;
5465;SDS011;2755;50.728;7.108;2023-12-20T05:34:16;121.00;;;37.63;;
5465;SDS011;2755;50.728;7.108;2023-12-20T05:36:41;120.67;;;37.50;;
5465;SDS011;2755;50.728;7.108;2023-12-20T05:39:07;121.27;;;39.60;;
5465;SDS011;2755;50.728;7.108;2023-12-20T05:41:33;125.57;;;43.13;;
5465;SDS011;2755;50.728;7.108;2023-12-20T05:43:58;122.53;;;39.10;;
5465;SDS011;2755;50.728;7.108;2023-12-20T05:46:24;121.47;;;38.13;;
5465;SDS011;2755;50.728;7.108;2023-12-20T05:48:50;121.00;;;40.77;;
5465;SDS011;2755;50.728;7.108;2023-12-20T05:51:16;120.07;;;38.43;;
5465;SDS011;2755;50.728;7.108;2023-12-20T05:53:42;123.70;;;38.37;;
5465;SDS011;2755;50.728;7.108;2023-12-20T05:56:09;120.47;;;35.63;;
5465;SDS011;2755;50.728;7.108;2023-12-20T05:58:34;124.37;;;40.00;;
5465;SDS011;2755;50.728;7.108;2023-12-20T06:01:00;121.23;;;40.20;;
5465;SDS011;2755;50.728;7.108;2023-12-20T06:03:26;118.67;;;37.27;;
5465;SDS011;2755;50.728;7.108;2023-12-20T06:05:52;120.70;;;39.67;;
5465;SDS011;2755;50.728;7.108;2023-12-20T06:08:18;120.83;;;38.53;;
5465;SDS011;2755;50.728;7.108;2023-12-20T06:10:44;123.50;;;39.00;;
5465;SDS011;2755;50.728;7.108;2023-12-20T06:13:10;127.67;;;38.97;;
5465;SDS011;2755;50.728;7.108;2023-12-20T06:15:38;119.30;;;37.47;;
5465;SDS011;2755;50.728;7.108;2023-12-20T06:18:05;119.17;;;37.03;;
5465;SDS011;2755;50.728;7.108;2023-12-20T06:20:30;121.93;;;38.20;;
5465;SDS011;2755;50.728;7.108;2023-12-20T06:22:56;119.27;;;37.10;;
5465;SDS011;2755;50.728;7.108;2023-12-20T06:25:22;121.37;;;39.20;;
5465;SDS011;2755;50.728;7.108;2023-12-20T06:27:48;121.80;;;38.27;;
5465;SDS011;2755;50.728;7.108;2023-12-20T06:30:14;119.87;;;37.57;;
5465;SDS011;2755;50.728;7.108;2023-12-20T06:32:39;118.97;;;36.40;;
5465;SDS011;2755;50.728;7.108;2023-12-20T06:35:07;121.10;;;38.70;;
5465;SDS011;2755;50.728;7.108;2023-12-20T06:37:33;121.47;;;37.17;;
5465;SDS011;2755;50.728;7.108;2023-12-20T06:39:59;122.87;;;39.07;;
5465;SDS011;2755;50.728;7.108;2023-12-20T06:42:25;125.30;;;40.40;;
5465;SDS011;2755;50.728;7.108;2023-12-20T06:44:50;123.83;;;42.47;;
5465;SDS011;2755;50.728;7.108;2023-12-20T06:47:16;122.77;;;42.87;;
5465;SDS011;2755;50.728;7.108;2023-12-20T06:49:42;122.20;;;40.83;;
5465;SDS011;2755;50.728;7.108;2023-12-20T06:52:07;124.40;;;41.90;;
5465;SDS011;2755;50.728;7.108;2023-12-20T06:54:33;120.97;;;39.17;;
5465;SDS011;2755;50.728;7.108;2023-12-20T06:56:59;123.90;;;42.67;;
5465;SDS011;2755;50.728;7.108;2023-12-20T06:59:25;121.87;;;42.10;;
5465;SDS011;2755;50.728;7.108;2023-12-20T07:01:51;122.93;;;41.63;;
5465;SDS011;2755;50.728;7.108;2023-12-20T07:04:17;122.57;;;40.93;;
5465;SDS011;2755;50.728;7.108;2023-12-20T07:06:45;123.00;;;41.73;;
5465;SDS011;2755;50.728;7.108;2023-12-20T07:09:11;122.30;;;41.80;;
5465;SDS011;2755;50.728;7.108;2023-12-20T07:11:38;122.87;;;41.63;;
5465;SDS011;2755;50.728;7.108;2023-12-20T07:14:03;122.57;;;42.83;;
5465;SDS011;2755;50.728;7.108;2023-12-20T07:16:29;120.90;;;39.93;;
5465;SDS011;2755;50.728;7.108;2023-12-20T07:18:55;124.63;;;40.67;;
5465;SDS011;2755;50.728;7.108;2023-12-20T07:21:22;122.60;;;42.10;;
5465;SDS011;2755;50.728;7.108;2023-12-20T07:23:47;120.93;;;38.60;;
5465;SDS011;2755;50.728;7.108;2023-12-20T07:26:13;123.20;;;43.50;;
5465;SDS011;2755;50.728;7.108;2023-12-20T07:28:40;124.77;;;42.57;;
5465;SDS011;2755;50.728;7.108;2023-12-20T07:31:05;126.20;;;43.40;;
5465;SDS011;2755;50.728;7.108;2023-12-20T07:33:31;127.30;;;48.57;;
5465;SDS011;2755;50.728;7.108;2023-12-20T07:35:57;130.10;;;51.00;;
5465;SDS011;2755;50.728;7.108;2023-12-20T07:38:23;125.87;;;45.30;;
5465;SDS011;2755;50.728;7.108;2023-12-20T07:40:49;127.80;;;47.90;;
5465;SDS011;2755;50.728;7.108;2023-12-20T07:43:14;127.57;;;43.33;;
5465;SDS011;2755;50.728;7.108;2023-12-20T07:45:40;126.47;;;47.27;;
5465;SDS011;2755;50.728;7.108;2023-12-20T07:48:06;124.83;;;44.73;;
5465;SDS011;2755;50.728;7.108;2023-12-20T07:50:32;125.13;;;44.73;;
5465;SDS011;2755;50.728;7.108;2023-12-20T07:52:58;124.83;;;44.00;;
5465;SDS011;2755;50.728;7.108;2023-12-20T07:55:25;123.20;;;43.97;;
5465;SDS011;2755;50.728;7.108;2023-12-20T07:57:51;126.97;;;45.20;;
5465;SDS011;2755;50.728;7.108;2023-12-20T08:00:17;126.60;;;47.97;;
5465;SDS011;2755;50.728;7.108;2023-12-20T08:02:43;130.00;;;48.73;;
5465;SDS011;2755;50.728;7.108;2023-12-20T08:05:08;126.07;;;45.37;;
5465;SDS011;2755;50.728;7.108;2023-12-20T08:07:34;127.77;;;48.97;;
5465;SDS011;2755;50.728;7.108;2023-12-20T08:10:00;125.97;;;45.53;;
5465;SDS011;2755;50.728;7.108;2023-12-20T08:12:26;125.93;;;46.17;;
5465;SDS011;2755;50.728;7.108;2023-12-20T08:14:53;126.87;;;45.60;;
5465;SDS011;2755;50.728;7.108;2023-12-20T08:17:19;126.57;;;48.60;;
5465;SDS011;2755;50.728;7.108;2023-12-20T08:19:45;125.77;;;45.10;;
5465;SDS011;2755;50.728;7.108;2023-12-20T08:22:10;125.60;;;47.87;;
5465;SDS011;2755;50.728;7.108;2023-12-20T08:24:36;126.27;;;44.97;;
5465;SDS011;2755;50.728;7.108;2023-12-20T08:27:02;127.70;;;48.77;;
5465;SDS011;2755;50.728;7.108;2023-12-20T08:29:28;123.97;;;46.00;;
5465;SDS011;2755;50.728;7.108;2023-12-20T08:31:54;126.57;;;46.97;;
5465;SDS011;2755;50.728;7.108;2023-12-20T08:34:20;129.40;;;48.37;;
5465;SDS011;2755;50.728;7.108;2023-12-20T08:36:46;128.47;;;50.77;;
5465;SDS011;2755;50.728;7.108;2023-12-20T08:39:12;126.77;;;47.63;;
5465;SDS011;2755;50.728;7.108;2023-12-20T08:41:38;126.23;;;46.17;;
5465;SDS011;2755;50.728;7.108;2023-12-20T08:44:03;126.13;;;49.60;;
5465;SDS011;2755;50.728;7.108;2023-12-20T08:46:29;128.77;;;50.57;;
5465;SDS011;2755;50.728;7.108;2023-12-20T08:48:55;129.47;;;51.63;;
5465;SDS011;2755;50.728;7.108;2023-12-20T08:51:21;128.67;;;53.30;;
5465;SDS011;2755;50.728;7.108;2023-12-20T08:53:48;129.57;;;50.60;;
5465;SDS011;2755;50.728;7.108;2023-12-20T08:56:14;127.80;;;51.93;;
5465;SDS011;2755;50.728;7.108;2023-12-20T08:58:40;130.83;;;54.70;;
5465;SDS011;2755;50.728;7.108;2023-12-20T09:01:06;129.67;;;54.50;;
5465;SDS011;2755;50.728;7.108;2023-12-20T09:03:32;135.27;;;57.87;;
5465;SDS011;2755;50.728;7.108;2023-12-20T09:05:58;130.67;;;54.07;;
5465;SDS011;2755;50.728;7.108;2023-12-20T09:08:24;132.53;;;57.33;;
5465;SDS011;2755;50.728;7.108;2023-12-20T09:10:49;141.20;;;70.17;;
5465;SDS011;2755;50.728;7.108;2023-12-20T09:13:15;142.20;;;74.97;;
5465;SDS011;2755;50.728;7.108;2023-12-20T09:15:41;141.83;;;72.70;;
5465;SDS011;2755;50.728;7.108;2023-12-20T09:18:07;139.50;;;69.97;;
5465;SDS011;2755;50.728;7.108;2023-12-20T09:20:32;138.37;;;67.07;;
5465;SDS011;2755;50.728;7.108;2023-12-20T09:22:58;135.40;;;60.00;;
5465;SDS011;2755;50.728;7.108;2023-12-20T09:25:24;135.67;;;63.20;;
5465;SDS011;2755;50.728;7.108;2023-12-20T09:27:51;135.57;;;60.73;;
5465;SDS011;2755;50.728;7.108;2023-12-20T09:30:17;133.80;;;55.53;;
5465;SDS011;2755;50.728;7.108;2023-12-20T09:32:43;130.53;;;52.07;;
5465;SDS011;2755;50.728;7.108;2023-12-20T09:35:09;134.27;;;60.57;;
5465;SDS011;2755;50.728;7.108;2023-12-20T09:37:34;136.17;;;57.80;;
5465;SDS011;2755;50.728;7.108;2023-12-20T09:40:00;135.17;;;59.43;;
5465;SDS011;2755;50.728;7.108;2023-12-20T09:42:34;135.57;;;60.70;;
5465;SDS011;2755;50.728;7.108;2023-12-20T09:45:12;135.00;;;59.17;;
5465;SDS011;2755;50.728;7.108;2023-12-20T09:47:42;135.00;;;61.33;;
5465;SDS011;2755;50.728;7.108;2023-12-20T09:50:08;136.37;;;57.30;;
5465;SDS011;2755;50.728;7.108;2023-12-20T09:52:36;133.77;;;58.43;;
5465;SDS011;2755;50.728;7.108;2023-12-20T09:55:02;134.27;;;57.80;;
5465;SDS011;2755;50.728;7.108;2023-12-20T09:57:31;133.07;;;53.93;;
5465;SDS011;2755;50.728;7.108;2023-12-20T09:59:57;130.20;;;53.67;;
5465;SDS011;2755;50.728;7.108;2023-12-20T10:02:23;132.07;;;56.07;;
5465;SDS011;2755;50.728;7.108;2023-12-20T10:04:52;131.67;;;55.87;;
5465;SDS011;2755;50.728;7.108;2023-12-20T10:07:18;131.83;;;53.87;;
5465;SDS011;2755;50.728;7.108;2023-12-20T10:09:44;133.37;;;53.67;;
5465;SDS011;2755;50.728;7.108;2023-12-20T10:12:10;130.40;;;53.90;;
5465;SDS011;2755;50.728;7.108;2023-12-20T10:14:36;131.47;;;54.27;;
5465;SDS011;2755;50.728;7.108;2023-12-20T10:17:04;131.13;;;54.37;;
5465;SDS011;2755;50.728;7.108;2023-12-20T10:19:31;132.27;;;54.80;;
5465;SDS011;2755;50.728;7.108;2023-12-20T10:22:00;134.27;;;58.37;;
5465;SDS011;2755;50.728;7.108;2023-12-20T10:24:29;132.77;;;55.00;;
5465;SDS011;2755;50.728;7.108;2023-12-20T10:27:05;132.77;;;54.67;;
5465;SDS011;2755;50.728;7.108;2023-12-20T10:29:32;132.30;;;52.90;;
5465;SDS011;2755;50.728;7.108;2023-12-20T10:31:59;133.47;;;55.87;;
5465;SDS011;2755;50.728;7.108;2023-12-20T10:34:25;130.27;;;50.00;;
5465;SDS011;2755;50.728;7.108;2023-12-20T10:36:51;135.20;;;57.23;;
5465;SDS011;2755;50.728;7.108;2023-12-20T10:39:17;130.90;;;50.23;;
5465;SDS011;2755;50.728;7.108;2023-12-20T10:41:45;129.27;;;50.17;;
5465;SDS011;2755;50.728;7.108;2023-12-20T10:44:11;130.07;;;49.83;;
5465;SDS011;2755;50.728;7.108;2023-12-20T10:46:38;130.90;;;51.40;;
5465;SDS011;2755;50.728;7.108;2023-12-20T10:49:05;129.67;;;50.00;;
5465;SDS011;2755;50.728;7.108;2023-12-20T10:51:33;134.40;;;52.77;;
5465;SDS011;2755;50.728;7.108;2023-12-20T10:54:00;132.70;;;52.17;;
5465;SDS011;2755;50.728;7.108;2023-12-20T10:56:25;127.80;;;48.53;;
5465;SDS011;2755;50.728;7.108;2023-12-20T10:58:57;128.87;;;49.07;;
5465;SDS011;2755;50.728;7.108;2023-12-20T11:01:27;132.50;;;53.77;;
5465;SDS011;2755;50.728;7.108;2023-12-20T11:03:55;128.47;;;49.60;;
5465;SDS011;2755;50.728;7.108;2023-12-20T11:06:40;130.83;;;50.30;;
5465;SDS011;2755;50.728;7.108;2023-12-20T11:09:25;131.40;;;51.07;;
5465;SDS011;2755;50.728;7.108;2023-12-20T11:14:23;129.20;;;49.63;;
5465;SDS011;2755;50.728;7.108;2023-12-20T11:17:07;132.97;;;51.97;;
5465;SDS011;2755;50.728;7.108;2023-12-20T11:19:38;131.93;;;50.00;;
5465;SDS011;2755;50.728;7.108;2023-12-20T11:22:25;130.87;;;50.67;;
5465;SDS011;2755;50.728;7.108;2023-12-20T11:24:53;128.30;;;47.93;;
5465;SDS011;2755;50.728;7.108;2023-12-20T11:27:20;127.80;;;49.60;;
5465;SDS011;2755;50.728;7.108;2023-12-20T11:29:54;131.10;;;47.03;;
5465;SDS011;2755;50.728;7.108;2023-12-20T11:34:54;130.37;;;50.47;;
5465;SDS011;2755;50.728;7.108;2023-12-20T11:37:28;133.20;;;49.57;;
5465;SDS011;2755;50.728;7.108;2023-12-20T11:40:04;129.77;;;48.77;;
5465;SDS011;2755;50.728;7.108;2023-12-20T11:42:38;128.77;;;45.77;;
5465;SDS011;2755;50.728;7.108;2023-12-20T11:45:14;129.77;;;49.80;;
5465;SDS011;2755;50.728;7.108;2023-12-20T11:47:42;127.07;;;46.20;;
5465;SDS011;2755;50.728;7.108;2023-12-20T11:50:12;128.27;;;47.47;;
5465;SDS011;2755;50.728;7.108;2023-12-20T11:52:38;130.03;;;50.13;;
5465;SDS011;2755;50.728;7.108;2023-12-20T11:55:04;130.77;;;51.47;;
5465;SDS011;2755;50.728;7.108;2023-12-20T11:57:30;130.27;;;49.93;;
5465;SDS011;2755;50.728;7.108;2023-12-20T11:59:57;128.87;;;47.70;;
5465;SDS011;2755;50.728;7.108;2023-12-20T12:02:23;129.33;;;47.57;;
5465;SDS011;2755;50.728;7.108;2023-12-20T12:04:49;129.40;;;50.23;;
5465;SDS011;2755;50.728;7.108;2023-12-20T12:07:18;130.80;;;50.40;;
5465;SDS011;2755;50.728;7.108;2023-12-20T12:09:43;128.63;;;49.00;;
5465;SDS011;2755;50.728;7.108;2023-12-20T12:12:10;130.67;;;50.70;;
5465;SDS011;2755;50.728;7.108;2023-12-20T12:14:37;128.30;;;48.60;;
5465;SDS011;2755;50.728;7.108;2023-12-20T12:17:03;130.33;;;52.07;;
5465;SDS011;2755;50.728;7.108;2023-12-20T12:19:29;127.47;;;49.90;;
5465;SDS011;2755;50.728;7.108;2023-12-20T12:22:07;130.27;;;48.97;;
5465;SDS011;2755;50.728;7.108;2023-12-20T12:24:37;125.60;;;45.03;;
5465;SDS011;2755;50.728;7.108;2023-12-20T12:27:05;126.27;;;46.80;;
5465;SDS011;2755;50.728;7.108;2023-12-20T12:29:31;127.20;;;48.20;;
5465;SDS011;2755;50.728;7.108;2023-12-20T12:31:58;126.97;;;48.87;;
5465;SDS011;2755;50.728;7.108;2023-12-20T12:34:26;128.00;;;47.23;;
5465;SDS011;2755;50.728;7.108;2023-12-20T12:36:53;128.67;;;49.00;;
5465;SDS011;2755;50.728;7.108;2023-12-20T12:39:19;129.77;;;50.00;;
5465;SDS011;2755;50.728;7.108;2023-12-20T12:41:45;128.17;;;48.80;;
5465;SDS011;2755;50.728;7.108;2023-12-20T12:44:11;126.00;;;47.20;;
5465;SDS011;2755;50.728;7.108;2023-12-20T12:46:37;128.47;;;49.40;;
5465;SDS011;2755;50.728;7.108;2023-12-20T12:49:03;126.83;;;48.07;;
5465;SDS011;2755;50.728;7.108;2023-12-20T12:51:29;126.57;;;48.90;;
5465;SDS011;2755;50.728;7.108;2023-12-20T12:53:56;127.60;;;48.13;;
5465;SDS011;2755;50.728;7.108;2023-12-20T12:56:22;127.47;;;49.30;;
5465;SDS011;2755;50.728;7.108;2023-12-20T12:58:48;125.57;;;45.47;;
5465;SDS011;2755;50.728;7.108;2023-12-20T13:01:14;125.63;;;44.07;;
5465;SDS011;2755;50.728;7.108;2023-12-20T13:03:40;125.87;;;46.43;;
5465;SDS011;2755;50.728;7.108;2023-12-20T13:06:06;126.07;;;48.23;;
5465;SDS011;2755;50.728;7.108;2023-12-20T13:08:34;125.87;;;46.47;;
5465;SDS011;2755;50.728;7.108;2023-12-20T13:10:59;124.87;;;44.90;;
5465;SDS011;2755;50.728;7.108;2023-12-20T13:13:29;124.20;;;43.73;;
5465;SDS011;2755;50.728;7.108;2023-12-20T13:15:55;126.07;;;45.90;;
5465;SDS011;2755;50.728;7.108;2023-12-20T13:18:21;126.43;;;46.00;;
5465;SDS011;2755;50.728;7.108;2023-12-20T13:20:47;129.90;;;48.77;;
5465;SDS011;2755;50.728;7.108;2023-12-20T13:23:13;126.63;;;45.77;;
5465;SDS011;2755;50.728;7.108;2023-12-20T13:25:40;124.67;;;45.20;;
5465;SDS011;2755;50.728;7.108;2023-12-20T13:28:06;128.07;;;49.87;;
5465;SDS011;2755;50.728;7.108;2023-12-20T13:30:33;129.13;;;50.03;;
5465;SDS011;2755;50.728;7.108;2023-12-20T13:32:59;130.60;;;51.17;;
5465;SDS011;2755;50.728;7.108;2023-12-20T13:35:24;125.10;;;44.73;;
5465;SDS011;2755;50.728;7.108;2023-12-20T13:37:50;127.87;;;48.27;;
5465;SDS011;2755;50.728;7.108;2023-12-20T13:40:16;132.17;;;54.67;;
5465;SDS011;2755;50.728;7.108;2023-12-20T13:42:42;127.93;;;47.87;;
5465;SDS011;2755;50.728;7.108;2023-12-20T13:45:08;127.97;;;48.77;;
5465;SDS011;2755;50.728;7.108;2023-12-20T13:47:35;126.93;;;46.47;;
5465;SDS011;2755;50.728;7.108;2023-12-20T13:50:02;132.47;;;55.37;;
5465;SDS011;2755;50.728;7.108;2023-12-20T13:52:29;130.83;;;53.03;;
5465;SDS011;2755;50.728;7.108;2023-12-20T13:54:54;136.17;;;59.57;;
5465;SDS011;2755;50.728;7.108;2023-12-20T13:57:20;135.30;;;60.33;;
5465;SDS011;2755;50.728;7.108;2023-12-20T13:59:45;134.77;;;61.67;;
5465;SDS011;2755;50.728;7.108;2023-12-20T14:02:11;131.17;;;56.50;;
5465;SDS011;2755;50.728;7.108;2023-12-20T14:04:36;131.57;;;55.37;;
5465;SDS011;2755;50.728;7.108;2023-12-20T14:07:04;134.97;;;58.57;;
5465;SDS011;2755;50.728;7.108;2023-12-20T14:09:30;135.10;;;60.87;;
5465;SDS011;2755;50.728;7.108;2023-12-20T14:11:59;133.27;;;58.70;;
5465;SDS011;2755;50.728;7.108;2023-12-20T14:14:25;135.33;;;61.27;;
5465;SDS011;2755;50.728;7.108;2023-12-20T14:16:50;136.00;;;63.40;;
5465;SDS011;2755;50.728;7.108;2023-12-20T14:19:16;134.37;;;61.20;;
5465;SDS011;2755;50.728;7.108;2023-12-20T14:21:42;133.60;;;60.20;;
5465;SDS011;2755;50.728;7.108;2023-12-20T14:24:10;133.17;;;56.10;;
5465;SDS011;2755;50.728;7.108;2023-12-20T14:26:40;133.97;;;58.30;;
5465;SDS011;2755;50.728;7.108;2023-12-20T14:29:05;132.80;;;58.07;;
5465;SDS011;2755;50.728;7.108;2023-12-20T14:31:32;135.37;;;62.90;;
5465;SDS011;2755;50.728;7.108;2023-12-20T14:33:58;135.13;;;61.07;;